createdAt,value
2022-08-23T00:00:43.796Z,0.00
2022-08-23T00:01:43.795Z,0.00
2022-08-23T00:02:43.823Z,0.00
2022-08-23T00:03:43.760Z,0.00
2022-08-23T00:04:56.875Z,0.00
2022-08-23T00:05:43.733Z,0.00
2022-08-23T00:06:43.731Z,0.00
2022-08-23T00:07:43.810Z,0.00
2022-08-23T00:08:47.422Z,0.00
2022-08-23T00:09:43.685Z,0.00
2022-08-23T00:10:43.674Z,0.00
2022-08-23T00:11:43.664Z,0.00
2022-08-23T00:12:43.652Z,0.00
2022-08-23T00:13:48.116Z,0.00
2022-08-23T00:14:45.364Z,0.00
2022-08-23T00:15:43.613Z,0.00
2022-08-23T00:16:43.602Z,0.00
2022-08-23T00:17:43.589Z,0.00
2022-08-23T00:18:43.578Z,0.00
2022-08-23T00:19:43.567Z,0.00
2022-08-23T00:20:43.558Z,0.00
2022-08-23T00:21:43.542Z,0.00
2022-08-23T00:22:43.541Z,0.00
2022-08-23T00:23:43.516Z,0.00
2022-08-23T00:24:43.508Z,0.00
2022-08-23T00:25:43.492Z,0.00
2022-08-23T00:26:43.482Z,0.00
2022-08-23T00:27:43.472Z,0.00
2022-08-23T00:28:43.458Z,0.00
2022-08-23T00:29:43.444Z,0.00
2022-08-23T00:30:43.434Z,0.00
2022-08-23T00:31:43.418Z,0.00
2022-08-23T00:32:44.071Z,0.00
2022-08-23T00:33:43.397Z,0.00
2022-08-23T00:34:43.384Z,0.00
2022-08-23T00:35:43.370Z,0.00
2022-08-23T00:36:43.361Z,0.00
2022-08-23T00:37:43.346Z,0.00
2022-08-23T00:38:43.339Z,0.00
2022-08-23T00:39:43.355Z,0.00
2022-08-23T00:40:43.318Z,0.00
2022-08-23T00:41:43.300Z,0.00
2022-08-23T00:42:43.292Z,0.00
2022-08-23T00:43:43.273Z,0.00
2022-08-23T00:44:43.263Z,0.00
2022-08-23T00:45:43.253Z,0.00
2022-08-23T00:46:43.241Z,0.00
2022-08-23T00:47:45.074Z,0.00
2022-08-23T00:48:43.212Z,0.00
2022-08-23T00:49:43.199Z,0.00
2022-08-23T00:50:43.192Z,0.00
2022-08-23T00:51:53.080Z,0.00
2022-08-23T00:52:43.166Z,0.00
2022-08-23T00:53:43.152Z,0.00
2022-08-23T00:54:43.142Z,0.00
2022-08-23T00:55:43.128Z,0.00
2022-08-23T00:56:43.115Z,0.00
2022-08-23T00:57:43.101Z,0.00
2022-08-23T00:58:43.090Z,0.00
2022-08-23T00:59:43.076Z,0.00
2022-08-23T01:00:43.076Z,0.00
2022-08-23T01:01:43.064Z,0.00
2022-08-23T01:02:43.041Z,0.00
2022-08-23T01:03:43.026Z,0.00
2022-08-23T01:04:43.016Z,0.00
2022-08-23T01:05:43.003Z,0.00
2022-08-23T01:06:42.993Z,0.00
2022-08-23T01:07:42.978Z,0.00
2022-08-23T01:08:42.970Z,0.00
2022-08-23T01:09:42.953Z,0.00
2022-08-23T01:10:42.943Z,0.00
2022-08-23T01:11:42.935Z,0.00
2022-08-23T01:12:42.919Z,0.00
2022-08-23T01:13:42.903Z,0.00
2022-08-23T01:14:42.891Z,0.00
2022-08-23T01:15:42.878Z,0.00
2022-08-23T01:16:42.871Z,0.00
2022-08-23T01:17:42.855Z,0.00
2022-08-23T01:18:42.845Z,0.00
2022-08-23T01:19:42.846Z,0.00
2022-08-23T01:20:42.817Z,0.00
2022-08-23T01:21:42.809Z,0.00
2022-08-23T01:22:42.797Z,0.00
2022-08-23T01:23:42.787Z,0.00
2022-08-23T01:25:07.574Z,0.00
2022-08-23T01:25:42.765Z,0.00
2022-08-23T01:26:42.746Z,0.00
2022-08-23T01:27:42.728Z,0.00
2022-08-23T01:28:43.421Z,0.00
2022-08-23T01:29:42.709Z,0.00
2022-08-23T01:30:42.693Z,0.00
2022-08-23T01:31:42.686Z,0.00
2022-08-23T01:32:42.675Z,0.00
2022-08-23T01:33:42.655Z,0.00
2022-08-23T01:34:44.702Z,0.00
2022-08-23T01:35:42.633Z,0.00
2022-08-23T01:36:42.623Z,0.00
2022-08-23T01:37:42.608Z,0.00
2022-08-23T01:38:42.596Z,0.00
2022-08-23T01:39:42.597Z,0.00
2022-08-23T01:40:42.576Z,0.00
2022-08-23T01:41:42.559Z,0.00
2022-08-23T01:42:42.545Z,0.00
2022-08-23T01:43:42.540Z,0.00
2022-08-23T01:44:42.526Z,0.00
2022-08-23T01:45:42.508Z,0.00
2022-08-23T01:46:42.496Z,0.00
2022-08-23T01:47:42.480Z,0.00
2022-08-23T01:48:42.470Z,0.00
2022-08-23T01:49:42.456Z,0.00
2022-08-23T01:50:42.449Z,0.00
2022-08-23T01:51:42.435Z,0.00
2022-08-23T01:52:47.267Z,0.00
2022-08-23T01:53:42.406Z,0.00
2022-08-23T01:54:42.402Z,0.00
2022-08-23T01:55:42.390Z,0.00
2022-08-23T01:56:42.372Z,0.00
2022-08-23T01:57:42.354Z,0.00
2022-08-23T01:58:42.344Z,0.00
2022-08-23T01:59:42.327Z,0.00
2022-08-23T02:00:42.319Z,0.00
2022-08-23T02:01:42.366Z,0.00
2022-08-23T02:02:42.293Z,0.00
2022-08-23T02:03:42.278Z,0.00
2022-08-23T02:04:42.269Z,0.00
2022-08-23T02:05:42.291Z,0.00
2022-08-23T02:06:42.246Z,0.00
2022-08-23T02:07:42.226Z,0.00
2022-08-23T02:08:42.228Z,0.00
2022-08-23T02:09:42.202Z,0.00
2022-08-23T02:10:42.189Z,0.00
2022-08-23T02:11:42.180Z,0.00
2022-08-23T02:12:42.167Z,0.00
2022-08-23T02:13:42.149Z,0.00
2022-08-23T02:14:42.183Z,0.00
2022-08-23T02:15:42.130Z,0.00
2022-08-23T02:16:42.111Z,0.00
2022-08-23T02:17:42.100Z,0.00
2022-08-23T02:18:42.100Z,0.00
2022-08-23T02:19:42.071Z,0.00
2022-08-23T02:20:42.058Z,0.00
2022-08-23T02:21:42.059Z,0.00
2022-08-23T02:22:42.032Z,0.00
2022-08-23T02:23:42.021Z,0.00
2022-08-23T02:24:42.015Z,0.00
2022-08-23T02:25:41.993Z,0.00
2022-08-23T02:26:41.989Z,0.00
2022-08-23T02:27:43.971Z,0.00
2022-08-23T02:28:41.956Z,0.00
2022-08-23T02:29:41.953Z,0.00
2022-08-23T02:30:41.968Z,0.00
2022-08-23T02:31:41.925Z,0.00
2022-08-23T02:32:41.907Z,0.00
2022-08-23T02:35:26.471Z,0.00
2022-08-23T02:36:26.129Z,0.00
2022-08-23T02:38:31.941Z,0.00
2022-08-23T02:39:31.887Z,0.00
2022-08-23T02:41:37.181Z,0.00
2022-08-23T02:42:36.999Z,0.00
2022-08-23T02:44:31.447Z,0.00
2022-08-23T02:45:31.367Z,0.00
2022-08-23T02:47:36.981Z,0.00
2022-08-23T02:48:36.849Z,0.00
2022-08-23T02:50:43.533Z,0.00
2022-08-23T02:51:43.260Z,0.00
2022-08-23T02:53:48.859Z,0.00
2022-08-23T02:54:48.697Z,0.00
2022-08-23T02:56:55.154Z,0.00
2022-08-23T02:57:55.260Z,0.00
2022-08-23T02:58:55.168Z,0.00
2022-08-23T02:59:55.300Z,0.00
2022-08-23T03:00:55.098Z,0.00
2022-08-23T03:01:55.123Z,0.00
2022-08-23T03:02:55.076Z,0.00
2022-08-23T03:03:55.053Z,0.00
2022-08-23T03:04:55.037Z,0.00
2022-08-23T03:05:55.027Z,0.00
2022-08-23T03:06:55.014Z,0.00
2022-08-23T03:07:55.030Z,0.00
2022-08-23T03:08:54.995Z,0.00
2022-08-23T03:09:54.979Z,0.00
2022-08-23T03:10:54.960Z,0.00
2022-08-23T03:11:54.947Z,0.00
2022-08-23T03:12:54.935Z,0.00
2022-08-23T03:13:54.936Z,0.00
2022-08-23T03:14:54.906Z,0.00
2022-08-23T03:15:54.901Z,0.00
2022-08-23T03:16:58.279Z,0.00
2022-08-23T03:17:54.961Z,0.00
2022-08-23T03:18:54.850Z,0.00
2022-08-23T03:19:54.842Z,0.00
2022-08-23T03:20:54.823Z,0.00
2022-08-23T03:21:54.813Z,0.00
2022-08-23T03:22:55.093Z,0.00
2022-08-23T03:23:54.796Z,0.00
2022-08-23T03:24:54.775Z,0.00
2022-08-23T03:25:54.772Z,0.00
2022-08-23T03:26:54.749Z,0.00
2022-08-23T03:27:54.766Z,0.00
2022-08-23T03:28:54.719Z,0.00
2022-08-23T03:29:54.710Z,0.00
2022-08-23T03:30:54.681Z,0.00
2022-08-23T03:31:54.669Z,0.00
2022-08-23T03:32:54.657Z,0.00
2022-08-23T03:33:54.644Z,0.00
2022-08-23T03:34:54.629Z,0.00
2022-08-23T03:35:54.622Z,0.00
2022-08-23T03:36:54.612Z,0.00
2022-08-23T03:37:55.358Z,0.00
2022-08-23T03:38:54.574Z,0.00
2022-08-23T03:39:54.574Z,0.00
2022-08-23T03:40:54.540Z,0.00
2022-08-23T03:41:54.540Z,0.00
2022-08-23T03:42:54.514Z,0.00
2022-08-23T03:43:54.507Z,0.00
2022-08-23T03:45:00.737Z,0.00
2022-08-23T03:45:54.476Z,0.00
2022-08-23T03:46:54.468Z,0.00
2022-08-23T03:47:54.456Z,0.00
2022-08-23T03:48:54.434Z,0.00
2022-08-23T03:49:54.423Z,0.00
2022-08-23T03:50:54.640Z,0.00
2022-08-23T03:51:54.398Z,0.00
2022-08-23T03:52:54.389Z,0.00
2022-08-23T03:53:54.400Z,0.00
2022-08-23T03:54:54.354Z,0.00
2022-08-23T03:55:54.381Z,0.00
2022-08-23T03:56:54.334Z,0.00
2022-08-23T03:57:54.318Z,0.00
2022-08-23T03:58:54.312Z,0.00
2022-08-23T03:59:54.298Z,0.00
2022-08-23T04:00:54.278Z,0.00
2022-08-23T04:01:54.330Z,0.00
2022-08-23T04:02:54.252Z,0.00
2022-08-23T04:03:54.239Z,0.00
2022-08-23T04:04:54.230Z,0.00
2022-08-23T04:05:54.210Z,0.00
2022-08-23T04:06:54.203Z,0.00
2022-08-23T04:07:54.186Z,0.00
2022-08-23T04:08:54.173Z,0.00
2022-08-23T04:09:55.355Z,0.00
2022-08-23T04:10:54.182Z,0.00
2022-08-23T04:11:54.136Z,0.00
2022-08-23T04:12:54.121Z,0.00
2022-08-23T04:13:54.145Z,0.00
2022-08-23T04:14:54.097Z,0.00
2022-08-23T04:15:54.079Z,0.00
2022-08-23T04:16:54.074Z,0.00
2022-08-23T04:17:54.049Z,0.00
2022-08-23T04:18:54.045Z,0.00
2022-08-23T04:19:54.030Z,0.00
2022-08-23T04:20:54.013Z,0.00
2022-08-23T04:21:54.010Z,0.00
2022-08-23T04:22:53.991Z,0.00
2022-08-23T04:23:53.977Z,0.00
2022-08-23T04:24:53.966Z,0.00
2022-08-23T04:25:53.966Z,0.00
2022-08-23T04:26:53.939Z,0.00
2022-08-23T04:27:53.922Z,0.00
2022-08-23T04:28:53.912Z,0.00
2022-08-23T04:29:53.902Z,0.00
2022-08-23T04:30:53.883Z,0.00
2022-08-23T04:31:53.867Z,0.00
2022-08-23T04:32:53.855Z,0.00
2022-08-23T04:33:53.840Z,0.00
2022-08-23T04:34:53.834Z,0.00
2022-08-23T04:35:53.815Z,0.00
2022-08-23T04:36:55.277Z,0.00
2022-08-23T04:37:53.791Z,0.00
2022-08-23T04:38:53.788Z,0.00
2022-08-23T04:39:54.072Z,0.00
2022-08-23T04:40:53.754Z,0.00
2022-08-23T04:41:53.752Z,0.00
2022-08-23T04:42:53.730Z,0.00
2022-08-23T04:43:53.714Z,5.63
2022-08-23T04:44:53.862Z,5.63
2022-08-23T04:45:53.679Z,5.63
2022-08-23T04:46:53.669Z,5.63
2022-08-23T04:47:53.652Z,5.63
2022-08-23T04:48:53.677Z,5.63
2022-08-23T04:49:53.635Z,5.63
2022-08-23T04:50:53.621Z,5.63
2022-08-23T04:51:54.158Z,5.63
2022-08-23T04:52:53.592Z,5.63
2022-08-23T04:53:53.578Z,5.63
2022-08-23T04:54:53.773Z,5.63
2022-08-23T04:55:53.547Z,5.63
2022-08-23T04:56:53.536Z,5.63
2022-08-23T04:57:53.527Z,5.63
2022-08-23T04:58:53.508Z,5.63
2022-08-23T04:59:53.508Z,5.63
2022-08-23T05:00:53.570Z,5.63
2022-08-23T05:02:02.535Z,5.63
2022-08-23T05:03:58.923Z,5.63
2022-08-23T05:04:58.891Z,5.63
2022-08-23T05:05:58.883Z,11.25
2022-08-23T05:06:58.867Z,11.25
2022-08-23T05:07:58.992Z,11.25
2022-08-23T05:08:58.839Z,11.25
2022-08-23T05:09:58.825Z,11.25
2022-08-23T05:10:58.813Z,11.25
2022-08-23T05:11:58.832Z,11.25
2022-08-23T05:12:58.794Z,11.25
2022-08-23T05:13:58.771Z,11.25
2022-08-23T05:14:58.806Z,11.25
2022-08-23T05:15:58.746Z,11.25
2022-08-23T05:16:58.733Z,11.25
2022-08-23T05:17:58.768Z,11.25
2022-08-23T05:18:58.717Z,11.25
2022-08-23T05:19:58.691Z,11.25
2022-08-23T05:20:58.683Z,11.25
2022-08-23T05:21:58.666Z,11.25
2022-08-23T05:22:58.655Z,11.25
2022-08-23T05:23:58.660Z,11.25
2022-08-23T05:24:58.630Z,16.88
2022-08-23T05:25:58.616Z,16.88
2022-08-23T05:26:58.602Z,16.88
2022-08-23T05:27:58.595Z,16.88
2022-08-23T05:28:58.574Z,16.88
2022-08-23T05:29:58.564Z,16.88
2022-08-23T05:30:58.549Z,16.88
2022-08-23T05:31:58.531Z,16.88
2022-08-23T05:32:58.523Z,16.88
2022-08-23T05:33:58.510Z,16.88
2022-08-23T05:34:58.493Z,16.88
2022-08-23T05:35:58.483Z,16.88
2022-08-23T05:36:58.468Z,16.88
2022-08-23T05:37:58.455Z,16.88
2022-08-23T05:38:58.441Z,16.88
2022-08-23T05:39:58.429Z,16.88
2022-08-23T05:40:59.788Z,16.88
2022-08-23T05:41:58.403Z,16.88
2022-08-23T05:42:58.389Z,16.88
2022-08-23T05:43:58.373Z,22.50
2022-08-23T05:44:58.362Z,22.50
2022-08-23T05:45:58.349Z,22.50
2022-08-23T05:46:58.335Z,22.50
2022-08-23T05:47:58.321Z,22.50
2022-08-23T05:48:58.307Z,28.13
2022-08-23T05:49:58.296Z,33.75
2022-08-23T05:50:58.280Z,33.75
2022-08-23T05:51:58.268Z,33.75
2022-08-23T05:52:58.255Z,33.75
2022-08-23T05:53:58.242Z,33.75
2022-08-23T05:54:58.226Z,39.38
2022-08-23T05:55:58.216Z,39.38
2022-08-23T05:56:58.202Z,45.00
2022-08-23T05:57:58.264Z,45.00
2022-08-23T05:58:59.985Z,45.00
2022-08-23T05:59:58.163Z,45.00
2022-08-23T06:00:58.262Z,45.00
2022-08-23T06:01:58.138Z,45.00
2022-08-23T06:02:58.121Z,50.63
2022-08-23T06:03:58.111Z,45.00
2022-08-23T06:04:58.116Z,45.00
2022-08-23T06:05:58.085Z,45.00
2022-08-23T06:06:58.087Z,45.00
2022-08-23T06:07:58.086Z,50.63
2022-08-23T06:08:58.059Z,50.63
2022-08-23T06:09:58.037Z,50.63
2022-08-23T06:10:58.019Z,45.00
2022-08-23T06:11:58.008Z,45.00
2022-08-23T06:12:57.994Z,39.38
2022-08-23T06:13:58.010Z,45.00
2022-08-23T06:14:57.969Z,45.00
2022-08-23T06:15:57.956Z,39.38
2022-08-23T06:16:57.967Z,39.38
2022-08-23T06:17:57.999Z,39.38
2022-08-23T06:18:57.917Z,39.38
2022-08-23T06:19:57.906Z,39.38
2022-08-23T06:20:57.894Z,39.38
2022-08-23T06:21:57.883Z,39.38
2022-08-23T06:22:57.868Z,45.00
2022-08-23T06:23:57.856Z,45.00
2022-08-23T06:24:57.840Z,39.38
2022-08-23T06:25:57.830Z,45.00
2022-08-23T06:26:57.823Z,39.38
2022-08-23T06:27:57.839Z,39.38
2022-08-23T06:28:57.818Z,39.38
2022-08-23T06:29:57.780Z,39.38
2022-08-23T06:30:57.850Z,39.38
2022-08-23T06:31:57.755Z,50.63
2022-08-23T06:32:57.771Z,67.50
2022-08-23T06:33:57.805Z,56.25
2022-08-23T06:35:33.281Z,61.88
2022-08-23T06:35:57.704Z,67.50
2022-08-23T06:36:57.693Z,61.88
2022-08-23T06:37:57.682Z,67.50
2022-08-23T06:38:57.666Z,67.50
2022-08-23T06:39:57.691Z,56.25
2022-08-23T06:40:57.643Z,73.13
2022-08-23T06:41:57.631Z,61.88
2022-08-23T06:42:57.618Z,67.50
2022-08-23T06:43:57.605Z,67.50
2022-08-23T06:44:57.593Z,73.13
2022-08-23T06:45:58.467Z,73.13
2022-08-23T06:46:57.663Z,50.63
2022-08-23T06:47:57.604Z,67.50
2022-08-23T06:48:57.544Z,73.13
2022-08-23T06:49:58.701Z,73.13
2022-08-23T06:50:57.522Z,67.50
2022-08-23T06:51:57.508Z,73.13
2022-08-23T06:52:57.494Z,73.13
2022-08-23T06:53:57.483Z,84.38
2022-08-23T06:54:57.623Z,67.50
2022-08-23T06:55:57.469Z,78.75
2022-08-23T06:56:57.442Z,95.63
2022-08-23T06:57:57.549Z,90.00
2022-08-23T06:58:57.432Z,90.00
2022-08-23T06:59:57.410Z,90.00
2022-08-23T07:00:57.741Z,84.38
2022-08-23T07:01:57.522Z,84.38
2022-08-23T07:02:57.559Z,84.38
2022-08-23T07:03:57.361Z,84.38
2022-08-23T07:04:57.346Z,78.75
2022-08-23T07:05:57.338Z,84.38
2022-08-23T07:06:57.323Z,78.75
2022-08-23T07:07:57.317Z,67.50
2022-08-23T07:08:57.299Z,61.88
2022-08-23T07:09:57.293Z,56.25
2022-08-23T07:10:57.274Z,56.25
2022-08-23T07:11:57.306Z,56.25
2022-08-23T07:12:57.293Z,56.25
2022-08-23T07:13:57.240Z,56.25
2022-08-23T07:14:57.228Z,56.25
2022-08-23T07:15:57.250Z,61.88
2022-08-23T07:16:57.204Z,78.75
2022-08-23T07:17:57.192Z,90.00
2022-08-23T07:18:57.178Z,61.88
2022-08-23T07:19:57.170Z,61.88
2022-08-23T07:20:57.154Z,140.63
2022-08-23T07:21:57.151Z,140.63
2022-08-23T07:22:57.154Z,140.63
2022-08-23T07:23:57.120Z,157.50
2022-08-23T07:24:57.106Z,146.25
2022-08-23T07:25:57.098Z,163.13
2022-08-23T07:26:57.087Z,168.75
2022-08-23T07:27:57.220Z,129.38
2022-08-23T07:28:57.065Z,163.13
2022-08-23T07:29:57.050Z,146.25
2022-08-23T07:30:57.035Z,191.25
2022-08-23T07:31:57.077Z,202.50
2022-08-23T07:32:57.022Z,208.13
2022-08-23T07:33:58.886Z,213.75
2022-08-23T07:34:56.996Z,219.38
2022-08-23T07:35:56.980Z,225.00
2022-08-23T07:36:56.967Z,236.25
2022-08-23T07:37:57.066Z,247.50
2022-08-23T07:38:56.964Z,253.13
2022-08-23T07:39:58.631Z,258.75
2022-08-23T07:40:56.923Z,270.00
2022-08-23T07:41:56.932Z,275.63
2022-08-23T07:42:56.967Z,286.88
2022-08-23T07:43:56.943Z,292.50
2022-08-23T07:44:56.967Z,303.75
2022-08-23T07:45:56.873Z,303.75
2022-08-23T07:46:56.939Z,309.38
2022-08-23T07:47:56.872Z,315.00
2022-08-23T07:48:56.841Z,309.38
2022-08-23T07:49:56.837Z,303.75
2022-08-23T07:50:58.370Z,247.50
2022-08-23T07:51:56.844Z,202.50
2022-08-23T07:52:56.800Z,157.50
2022-08-23T07:53:56.793Z,140.63
2022-08-23T07:54:56.780Z,129.38
2022-08-23T07:55:56.771Z,129.38
2022-08-23T07:56:56.766Z,129.38
2022-08-23T07:57:56.832Z,123.75
2022-08-23T07:58:56.744Z,123.75
2022-08-23T07:59:56.735Z,135.00
2022-08-23T08:00:56.725Z,135.00
2022-08-23T08:01:56.814Z,140.63
2022-08-23T08:02:56.757Z,180.00
2022-08-23T08:03:56.704Z,331.88
2022-08-23T08:04:56.689Z,444.38
2022-08-23T08:05:56.683Z,466.88
2022-08-23T08:07:17.704Z,489.38
2022-08-23T08:07:56.661Z,489.38
2022-08-23T08:08:56.653Z,500.63
2022-08-23T08:09:56.654Z,511.88
2022-08-23T08:10:56.637Z,517.50
2022-08-23T08:11:56.627Z,517.50
2022-08-23T08:12:56.619Z,534.38
2022-08-23T08:13:56.614Z,540.00
2022-08-23T08:14:56.612Z,540.00
2022-08-23T08:15:56.661Z,545.63
2022-08-23T08:16:56.588Z,540.00
2022-08-23T08:17:56.671Z,534.38
2022-08-23T08:18:56.574Z,534.38
2022-08-23T08:19:56.587Z,534.38
2022-08-23T08:20:56.562Z,551.25
2022-08-23T08:21:56.560Z,562.50
2022-08-23T08:22:58.478Z,573.75
2022-08-23T08:23:57.552Z,573.75
2022-08-23T08:24:56.536Z,545.63
2022-08-23T08:25:56.531Z,545.63
2022-08-23T08:26:56.526Z,399.38
2022-08-23T08:27:56.766Z,630.00
2022-08-23T08:28:56.515Z,534.38
2022-08-23T08:29:56.512Z,421.88
2022-08-23T08:30:56.522Z,646.88
2022-08-23T08:31:56.504Z,646.88
2022-08-23T08:32:56.491Z,641.25
2022-08-23T08:33:56.488Z,652.50
2022-08-23T08:34:56.481Z,624.38
2022-08-23T08:35:57.885Z,641.25
2022-08-23T08:36:58.468Z,635.63
2022-08-23T08:37:56.469Z,551.25
2022-08-23T08:38:58.792Z,292.50
2022-08-23T08:39:56.501Z,309.38
2022-08-23T08:40:56.458Z,298.13
2022-08-23T08:42:04.945Z,196.88
2022-08-23T08:42:56.489Z,180.00
2022-08-23T08:43:56.440Z,180.00
2022-08-23T08:44:56.431Z,168.75
2022-08-23T08:45:59.052Z,163.13
2022-08-23T08:46:56.426Z,157.50
2022-08-23T08:47:56.466Z,157.50
2022-08-23T08:48:56.418Z,157.50
2022-08-23T08:49:56.413Z,157.50
2022-08-23T08:50:56.408Z,163.13
2022-08-23T08:51:56.398Z,168.75
2022-08-23T08:52:56.396Z,191.25
2022-08-23T08:53:56.390Z,286.88
2022-08-23T08:54:56.382Z,607.50
2022-08-23T08:55:56.375Z,472.50
2022-08-23T08:56:56.374Z,309.38
2022-08-23T08:57:56.413Z,450.00
2022-08-23T08:58:56.360Z,613.13
2022-08-23T08:59:56.355Z,646.88
2022-08-23T09:00:56.544Z,495.00
2022-08-23T09:01:56.414Z,275.63
2022-08-23T09:02:56.399Z,225.00
2022-08-23T09:03:56.333Z,292.50
2022-08-23T09:04:56.330Z,326.25
2022-08-23T09:05:56.509Z,298.13
2022-08-23T09:06:56.317Z,241.88
2022-08-23T09:07:56.413Z,219.38
2022-08-23T09:08:56.307Z,241.88
2022-08-23T09:09:56.306Z,253.13
2022-08-23T09:10:56.579Z,219.38
2022-08-23T09:11:56.295Z,230.63
2022-08-23T09:12:56.285Z,241.88
2022-08-23T09:13:56.295Z,253.13
2022-08-23T09:14:56.281Z,500.63
2022-08-23T09:15:56.307Z,585.00
2022-08-23T09:16:56.265Z,405.00
2022-08-23T09:17:56.338Z,371.25
2022-08-23T09:18:56.260Z,461.25
2022-08-23T09:19:56.252Z,562.50
2022-08-23T09:20:56.244Z,556.88
2022-08-23T09:21:56.242Z,472.50
2022-08-23T09:22:56.234Z,455.63
2022-08-23T09:24:00.221Z,230.63
2022-08-23T09:24:56.229Z,596.25
2022-08-23T09:25:59.875Z,601.88
2022-08-23T09:26:56.216Z,601.88
2022-08-23T09:27:56.234Z,596.25
2022-08-23T09:28:56.207Z,590.63
2022-08-23T09:29:56.237Z,596.25
2022-08-23T09:30:56.251Z,590.63
2022-08-23T09:31:56.224Z,585.00
2022-08-23T09:32:56.192Z,585.00
2022-08-23T09:33:56.190Z,590.63
2022-08-23T09:34:56.186Z,596.25
2022-08-23T09:35:56.185Z,601.88
2022-08-23T09:36:56.178Z,601.88
2022-08-23T09:37:56.230Z,596.25
2022-08-23T09:38:56.173Z,596.25
2022-08-23T09:39:56.339Z,590.63
2022-08-23T09:40:56.168Z,590.63
2022-08-23T09:41:56.175Z,590.63
2022-08-23T09:42:56.161Z,590.63
2022-08-23T09:43:56.162Z,585.00
2022-08-23T09:44:56.156Z,585.00
2022-08-23T09:45:56.215Z,579.38
2022-08-23T09:46:56.153Z,585.00
2022-08-23T09:47:56.195Z,585.00
2022-08-23T09:48:56.150Z,590.63
2022-08-23T09:49:56.148Z,596.25
2022-08-23T09:50:56.144Z,596.25
2022-08-23T09:51:56.160Z,601.88
2022-08-23T09:52:56.186Z,601.88
2022-08-23T09:53:56.144Z,601.88
2022-08-23T09:54:56.138Z,601.88
2022-08-23T09:55:56.143Z,607.50
2022-08-23T09:56:56.137Z,607.50
2022-08-23T09:57:56.136Z,607.50
2022-08-23T09:58:56.137Z,613.13
2022-08-23T09:59:56.137Z,613.13
2022-08-23T10:00:56.133Z,613.13
2022-08-23T10:01:56.177Z,613.13
2022-08-23T10:02:56.163Z,613.13
2022-08-23T10:03:56.134Z,618.75
2022-08-23T10:04:56.249Z,613.13
2022-08-23T10:05:56.143Z,618.75
2022-08-23T10:06:56.136Z,618.75
2022-08-23T10:07:56.139Z,618.75
2022-08-23T10:08:56.133Z,618.75
2022-08-23T10:09:56.131Z,618.75
2022-08-23T10:10:56.134Z,624.38
2022-08-23T10:11:56.131Z,624.38
2022-08-23T10:12:56.220Z,624.38
2022-08-23T10:13:56.150Z,624.38
2022-08-23T10:14:56.134Z,630.00
2022-08-23T10:15:56.186Z,635.63
2022-08-23T10:16:56.133Z,630.00
2022-08-23T10:17:56.209Z,630.00
2022-08-23T10:18:56.131Z,630.00
2022-08-23T10:19:56.132Z,635.63
2022-08-23T10:20:56.144Z,635.63
2022-08-23T10:21:56.134Z,635.63
2022-08-23T10:22:57.036Z,635.63
2022-08-23T10:23:56.132Z,635.63
2022-08-23T10:24:56.137Z,635.63
2022-08-23T10:25:56.137Z,641.25
2022-08-23T10:26:56.136Z,641.25
2022-08-23T10:27:56.164Z,641.25
2022-08-23T10:28:56.150Z,641.25
2022-08-23T10:29:56.135Z,646.88
2022-08-23T10:30:56.175Z,652.50
2022-08-23T10:31:59.097Z,646.88
2022-08-23T10:32:56.138Z,646.88
2022-08-23T10:33:56.135Z,652.50
2022-08-23T10:34:56.138Z,652.50
2022-08-23T10:35:56.150Z,652.50
2022-08-23T10:36:56.136Z,658.13
2022-08-23T10:37:56.213Z,658.13
2022-08-23T10:38:56.137Z,663.75
2022-08-23T10:39:59.157Z,663.75
2022-08-23T10:40:56.135Z,663.75
2022-08-23T10:41:56.149Z,663.75
2022-08-23T10:42:56.153Z,669.38
2022-08-23T10:43:56.157Z,675.00
2022-08-23T10:44:56.156Z,675.00
2022-08-23T10:46:00.222Z,675.00
2022-08-23T10:46:56.134Z,680.63
2022-08-23T10:47:56.201Z,680.63
2022-08-23T10:48:56.156Z,680.63
2022-08-23T10:49:56.132Z,675.00
2022-08-23T10:50:56.400Z,675.00
2022-08-23T10:51:56.141Z,680.63
2022-08-23T10:52:56.135Z,680.63
2022-08-23T10:53:56.133Z,680.63
2022-08-23T10:54:56.132Z,680.63
2022-08-23T10:55:56.131Z,680.63
2022-08-23T10:56:56.131Z,680.63
2022-08-23T10:57:56.222Z,686.25
2022-08-23T10:58:56.136Z,686.25
2022-08-23T10:59:56.129Z,686.25
2022-08-23T11:00:56.132Z,691.88
2022-08-23T11:01:56.210Z,691.88
2022-08-23T11:02:56.246Z,697.50
2022-08-23T11:03:56.133Z,697.50
2022-08-23T11:05:06.412Z,703.13
2022-08-23T11:07:03.174Z,708.75
2022-08-23T11:08:03.327Z,708.75
2022-08-23T11:10:16.305Z,714.38
2022-08-23T11:11:10.394Z,714.38
2022-08-23T11:13:17.531Z,725.63
2022-08-23T11:14:17.402Z,725.63
2022-08-23T11:16:13.353Z,736.88
2022-08-23T11:17:13.354Z,731.25
2022-08-23T11:19:20.325Z,736.88
2022-08-23T11:20:20.303Z,742.50
2022-08-23T11:22:27.319Z,753.75
2022-08-23T11:23:27.321Z,753.75
2022-08-23T11:25:23.269Z,759.38
2022-08-23T11:26:23.248Z,759.38
2022-08-23T11:28:30.443Z,776.25
2022-08-23T11:29:30.259Z,770.63
2022-08-23T11:30:30.264Z,765.00
2022-08-23T11:31:30.273Z,765.00
2022-08-23T11:32:30.290Z,759.38
2022-08-23T11:33:30.273Z,759.38
2022-08-23T11:34:30.270Z,765.00
2022-08-23T11:35:30.266Z,759.38
2022-08-23T11:36:30.310Z,759.38
2022-08-23T11:37:30.298Z,759.38
2022-08-23T11:38:30.278Z,770.63
2022-08-23T11:39:30.271Z,776.25
2022-08-23T11:40:30.338Z,776.25
2022-08-23T11:41:30.288Z,776.25
2022-08-23T11:42:30.284Z,781.88
2022-08-23T11:43:30.278Z,798.75
2022-08-23T11:44:30.284Z,787.50
2022-08-23T11:45:30.277Z,793.13
2022-08-23T11:46:30.296Z,798.75
2022-08-23T11:47:30.280Z,798.75
2022-08-23T11:48:30.284Z,798.75
2022-08-23T11:49:30.289Z,804.38
2022-08-23T11:50:30.286Z,810.00
2022-08-23T11:51:30.292Z,810.00
2022-08-23T11:52:30.294Z,810.00
2022-08-23T11:53:30.308Z,810.00
2022-08-23T11:54:30.295Z,815.63
2022-08-23T11:55:30.295Z,815.63
2022-08-23T11:56:30.298Z,815.63
2022-08-23T11:57:30.301Z,815.63
2022-08-23T11:58:30.311Z,821.25
2022-08-23T11:59:31.482Z,815.63
2022-08-23T12:00:30.308Z,810.00
2022-08-23T12:01:30.309Z,826.88
2022-08-23T12:02:30.410Z,832.50
2022-08-23T12:03:30.493Z,838.13
2022-08-23T12:04:30.323Z,843.75
2022-08-23T12:05:30.318Z,826.88
2022-08-23T12:06:30.320Z,714.38
2022-08-23T12:07:30.323Z,725.63
2022-08-23T12:08:30.330Z,241.88
2022-08-23T12:09:30.330Z,292.50
2022-08-23T12:10:30.350Z,140.63
2022-08-23T12:11:30.328Z,129.38
2022-08-23T12:12:32.559Z,129.38
2022-08-23T12:13:30.335Z,129.38
2022-08-23T12:14:30.337Z,135.00
2022-08-23T12:15:30.384Z,146.25
2022-08-23T12:16:30.489Z,168.75
2022-08-23T12:17:34.147Z,191.25
2022-08-23T12:18:30.345Z,343.13
2022-08-23T12:19:30.343Z,523.13
2022-08-23T12:20:30.345Z,821.25
2022-08-23T12:21:30.351Z,821.25
2022-08-23T12:22:30.354Z,832.50
2022-08-23T12:23:30.855Z,838.13
2022-08-23T12:24:30.353Z,838.13
2022-08-23T12:25:30.349Z,826.88
2022-08-23T12:26:30.356Z,821.25
2022-08-23T12:27:30.359Z,826.88
2022-08-23T12:28:30.350Z,826.88
2022-08-23T12:29:30.350Z,826.88
2022-08-23T12:30:30.352Z,821.25
2022-08-23T12:31:30.411Z,826.88
2022-08-23T12:32:30.549Z,810.00
2022-08-23T12:33:30.355Z,810.00
2022-08-23T12:34:30.408Z,714.38
2022-08-23T12:35:30.409Z,826.88
2022-08-23T12:36:30.379Z,832.50
2022-08-23T12:37:30.391Z,759.38
2022-08-23T12:38:30.363Z,815.63
2022-08-23T12:39:30.362Z,140.63
2022-08-23T12:40:30.363Z,146.25
2022-08-23T12:41:30.385Z,286.88
2022-08-23T12:42:30.367Z,849.38
2022-08-23T12:43:30.377Z,146.25
2022-08-23T12:44:30.367Z,135.00
2022-08-23T12:45:30.366Z,129.38
2022-08-23T12:46:30.473Z,135.00
2022-08-23T12:47:30.372Z,337.50
2022-08-23T12:48:30.397Z,855.00
2022-08-23T12:49:30.381Z,613.13
2022-08-23T12:50:33.198Z,225.00
2022-08-23T12:51:30.375Z,331.88
2022-08-23T12:52:30.371Z,798.75
2022-08-23T12:53:30.371Z,804.38
2022-08-23T12:54:30.368Z,798.75
2022-08-23T12:55:30.373Z,793.13
2022-08-23T12:56:31.646Z,388.13
2022-08-23T12:57:30.377Z,433.13
2022-08-23T12:58:33.431Z,163.13
2022-08-23T12:59:31.701Z,680.63
2022-08-23T13:00:30.373Z,765.00
2022-08-23T13:01:31.020Z,765.00
2022-08-23T13:02:30.416Z,765.00
2022-08-23T13:03:30.375Z,781.88
2022-08-23T13:04:30.370Z,770.63
2022-08-23T13:05:30.374Z,748.13
2022-08-23T13:06:30.368Z,742.50
2022-08-23T13:07:30.375Z,725.63
2022-08-23T13:08:34.823Z,725.63
2022-08-23T13:09:30.369Z,731.25
2022-08-23T13:10:30.377Z,731.25